Illinois River (Oklahoma), Tahlequah (07196500)

StateOklahomaLatestGood (756 cfs)
RiverIllinois RiverRatingObservedEstimated
Updated2021-01-24 8:30 (5 minutes ago)Flood - The river is flooding. Obstacles can be treacherous or deadly. The river should be avoided at this stage for casual trips and definitely for the inexperienced. Trips should be attempted only with protective gear and equipment.Flood(none)3443
Discharge756 cfs (median: 439 cfs)High - The river is high and potentially dangerous, especially for the young and / or inexperienced. Normal stream obstacles are sometimes difficult to navigate. Extended distances can be attempted, but canoe travel may not be advisable.High(none)1734
Height5.55 feetGood - Conditions are ideal for a canoe or kayak. Boats typically will drag on fewer than one-quarter of riffles, if at all, and portages are unnecessary or rare. Normal float lengths can be attempted without a problem.Good300924
TrendRising (falling over 24 hours)Low - River is low but can still be floated. Some riffles are okay but most come with significant dragging and might need a portage. Float lengths should be reduced to accommodate low flow, dragging, and portages.Low(none)607
USGSExternal icon USGS Site (External icon Google Maps)Poor - River is too low to float comfortably. Most or all riffles will drag or must be portaged and some obstacles (such as slick shelf rock) cause undue problems. Avoid the river at this stage for casual paddling trips.Poor(none)234

Trending Data

Plot Image

Trips for Illinois River (Oklahoma), Tahlequah (07196500)

DateStartEndDistanceConditionDischargeHeightFishingDetails

A total of 0 rows are displayed.

Condition Descriptions

Fishing Conditions

Fish Species

Notes

Classic Trip List

The classic River Trips application is still available for use. It is updated with the new system using a data retrofit. It is no longer maintained. The original River Trips application is no longer updated (as of 1 Dec 2016) but can be checked for errors or for the condition of the data before it was converted to the new system.

Gauge Data Table

ObservationHeightDischargeMaximum
Discharge
Minimum
Discharge
Mean
Discharge
P05P10P20P25P50
(Median)
P75P80P90P95
2021-01-24 08:30 5.55 756 5230 (1973) 82 (1956) 738 108 184 217 267 439 973 1210 1650 2130
2021-01-24 07:30 5.54 749 5230 (1973) 82 (1956) 738 108 184 217 267 439 973 1210 1650 2130
2021-01-24 06:30 5.54 749 5230 (1973) 82 (1956) 738 108 184 217 267 439 973 1210 1650 2130
2021-01-24 05:30 5.55 756 5230 (1973) 82 (1956) 738 108 184 217 267 439 973 1210 1650 2130
2021-01-24 04:30 5.55 756 5230 (1973) 82 (1956) 738 108 184 217 267 439 973 1210 1650 2130
2021-01-24 03:30 5.55 756 5230 (1973) 82 (1956) 738 108 184 217 267 439 973 1210 1650 2130
2021-01-24 02:30 5.56 762 5230 (1973) 82 (1956) 738 108 184 217 267 439 973 1210 1650 2130
2021-01-24 01:30 5.55 756 5230 (1973) 82 (1956) 738 108 184 217 267 439 973 1210 1650 2130
2021-01-24 00:30 5.55 756 5230 (1973) 82 (1956) 738 108 184 217 267 439 973 1210 1650 2130
2021-01-23 23:30 5.56 762 8380 (1973) 78 (1956) 810 108 173 219 266 420 1040 1180 1900 2470
2021-01-23 22:30 5.55 756 8380 (1973) 78 (1956) 810 108 173 219 266 420 1040 1180 1900 2470
2021-01-23 21:30 5.55 756 8380 (1973) 78 (1956) 810 108 173 219 266 420 1040 1180 1900 2470
2021-01-23 20:30 5.56 762 8380 (1973) 78 (1956) 810 108 173 219 266 420 1040 1180 1900 2470
2021-01-23 19:30 5.55 756 8380 (1973) 78 (1956) 810 108 173 219 266 420 1040 1180 1900 2470
2021-01-23 18:30 5.56 762 8380 (1973) 78 (1956) 810 108 173 219 266 420 1040 1180 1900 2470
2021-01-23 17:30 5.56 762 8380 (1973) 78 (1956) 810 108 173 219 266 420 1040 1180 1900 2470
2021-01-23 16:30 5.56 762 8380 (1973) 78 (1956) 810 108 173 219 266 420 1040 1180 1900 2470
2021-01-23 15:30 5.56 762 8380 (1973) 78 (1956) 810 108 173 219 266 420 1040 1180 1900 2470
2021-01-23 14:30 5.58 775 8380 (1973) 78 (1956) 810 108 173 219 266 420 1040 1180 1900 2470
2021-01-23 13:30 5.57 768 8380 (1973) 78 (1956) 810 108 173 219 266 420 1040 1180 1900 2470
2021-01-23 12:30 5.57 768 8380 (1973) 78 (1956) 810 108 173 219 266 420 1040 1180 1900 2470
2021-01-23 11:30 5.59 781 8380 (1973) 78 (1956) 810 108 173 219 266 420 1040 1180 1900 2470
2021-01-23 10:30 5.56 762 8380 (1973) 78 (1956) 810 108 173 219 266 420 1040 1180 1900 2470
2021-01-23 09:30 5.57 768 8380 (1973) 78 (1956) 810 108 173 219 266 420 1040 1180 1900 2470
2021-01-23 08:30 5.58 775 8380 (1973) 78 (1956) 810 108 173 219 266 420 1040 1180 1900 2470
2021-01-23 07:30 5.59 781 8380 (1973) 78 (1956) 810 108 173 219 266 420 1040 1180 1900 2470
2021-01-23 06:30 5.57 768 8380 (1973) 78 (1956) 810 108 173 219 266 420 1040 1180 1900 2470
2021-01-23 05:30 5.59 781 8380 (1973) 78 (1956) 810 108 173 219 266 420 1040 1180 1900 2470
2021-01-23 04:30 5.57 768 8380 (1973) 78 (1956) 810 108 173 219 266 420 1040 1180 1900 2470
2021-01-23 03:30 5.59 781 8380 (1973) 78 (1956) 810 108 173 219 266 420 1040 1180 1900 2470
2021-01-23 02:30 5.59 781 8380 (1973) 78 (1956) 810 108 173 219 266 420 1040 1180 1900 2470
2021-01-23 01:30 5.57 768 8380 (1973) 78 (1956) 810 108 173 219 266 420 1040 1180 1900 2470
2021-01-23 00:30 5.59 781 8380 (1973) 78 (1956) 810 108 173 219 266 420 1040 1180 1900 2470
2021-01-22 23:30 5.59 781 6560 (1973) 73 (1956) 800 106 150 215 265 419 1050 1210 2010 2740
2021-01-22 22:30 5.58 775 6560 (1973) 73 (1956) 800 106 150 215 265 419 1050 1210 2010 2740
2021-01-22 21:30 5.60 788 6560 (1973) 73 (1956) 800 106 150 215 265 419 1050 1210 2010 2740
2021-01-22 20:30 5.60 788 6560 (1973) 73 (1956) 800 106 150 215 265 419 1050 1210 2010 2740
2021-01-22 19:30 5.59 781 6560 (1973) 73 (1956) 800 106 150 215 265 419 1050 1210 2010 2740
2021-01-22 18:30 5.59 781 6560 (1973) 73 (1956) 800 106 150 215 265 419 1050 1210 2010 2740
2021-01-22 17:30 5.58 775 6560 (1973) 73 (1956) 800 106 150 215 265 419 1050 1210 2010 2740
2021-01-22 16:30 5.59 781 6560 (1973) 73 (1956) 800 106 150 215 265 419 1050 1210 2010 2740
2021-01-22 15:30 5.58 775 6560 (1973) 73 (1956) 800 106 150 215 265 419 1050 1210 2010 2740
2021-01-22 14:30 5.59 781 6560 (1973) 73 (1956) 800 106 150 215 265 419 1050 1210 2010 2740
2021-01-22 13:30 5.59 781 6560 (1973) 73 (1956) 800 106 150 215 265 419 1050 1210 2010 2740
2021-01-22 12:30 5.58 775 6560 (1973) 73 (1956) 800 106 150 215 265 419 1050 1210 2010 2740
2021-01-22 11:30 5.59 781 6560 (1973) 73 (1956) 800 106 150 215 265 419 1050 1210 2010 2740
2021-01-22 10:30 5.59 781 6560 (1973) 73 (1956) 800 106 150 215 265 419 1050 1210 2010 2740
2021-01-22 09:30 5.59 781 6560 (1973) 73 (1956) 800 106 150 215 265 419 1050 1210 2010 2740
2021-01-22 08:30 5.59 781 6560 (1973) 73 (1956) 800 106 150 215 265 419 1050 1210 2010 2740
2021-01-22 07:30 5.60 788 6560 (1973) 73 (1956) 800 106 150 215 265 419 1050 1210 2010 2740
2021-01-22 06:30 5.60 788 6560 (1973) 73 (1956) 800 106 150 215 265 419 1050 1210 2010 2740
2021-01-22 05:30 5.60 788 6560 (1973) 73 (1956) 800 106 150 215 265 419 1050 1210 2010 2740
2021-01-22 04:30 5.59 781 6560 (1973) 73 (1956) 800 106 150 215 265 419 1050 1210 2010 2740
2021-01-22 03:30 5.62 801 6560 (1973) 73 (1956) 800 106 150 215 265 419 1050 1210 2010 2740
2021-01-22 02:30 5.61 794 6560 (1973) 73 (1956) 800 106 150 215 265 419 1050 1210 2010 2740
2021-01-22 01:30 5.61 794 6560 (1973) 73 (1956) 800 106 150 215 265 419 1050 1210 2010 2740
2021-01-22 00:30 5.61 794 6560 (1973) 73 (1956) 800 106 150 215 265 419 1050 1210 2010 2740
2021-01-21 23:30 5.60 788 6100 (1990) 71 (1956) 840 99 149 213 261 425 1080 1400 2150 3090
2021-01-21 22:30 5.62 801 6100 (1990) 71 (1956) 840 99 149 213 261 425 1080 1400 2150 3090
2021-01-21 21:30 5.60 788 6100 (1990) 71 (1956) 840 99 149 213 261 425 1080 1400 2150 3090
2021-01-21 20:30 5.60 788 6100 (1990) 71 (1956) 840 99 149 213 261 425 1080 1400 2150 3090
2021-01-21 19:30 5.60 788 6100 (1990) 71 (1956) 840 99 149 213 261 425 1080 1400 2150 3090
2021-01-21 18:30 5.60 788 6100 (1990) 71 (1956) 840 99 149 213 261 425 1080 1400 2150 3090
2021-01-21 17:30 5.61 794 6100 (1990) 71 (1956) 840 99 149 213 261 425 1080 1400 2150 3090
2021-01-21 16:30 5.59 781 6100 (1990) 71 (1956) 840 99 149 213 261 425 1080 1400 2150 3090
2021-01-21 15:30 5.60 788 6100 (1990) 71 (1956) 840 99 149 213 261 425 1080 1400 2150 3090
2021-01-21 14:30 5.60 788 6100 (1990) 71 (1956) 840 99 149 213 261 425 1080 1400 2150 3090
2021-01-21 13:30 5.61 794 6100 (1990) 71 (1956) 840 99 149 213 261 425 1080 1400 2150 3090
2021-01-21 12:30 5.61 794 6100 (1990) 71 (1956) 840 99 149 213 261 425 1080 1400 2150 3090
2021-01-21 11:30 5.62 801 6100 (1990) 71 (1956) 840 99 149 213 261 425 1080 1400 2150 3090
2021-01-21 10:30 5.63 807 6100 (1990) 71 (1956) 840 99 149 213 261 425 1080 1400 2150 3090
2021-01-21 09:30 5.63 807 6100 (1990) 71 (1956) 840 99 149 213 261 425 1080 1400 2150 3090
2021-01-21 08:30 5.62 801 6100 (1990) 71 (1956) 840 99 149 213 261 425 1080 1400 2150 3090
2021-01-21 07:30 5.63 807 6100 (1990) 71 (1956) 840 99 149 213 261 425 1080 1400 2150 3090
2021-01-21 06:30 5.61 794 6100 (1990) 71 (1956) 840 99 149 213 261 425 1080 1400 2150 3090
2021-01-21 05:30 5.63 807 6100 (1990) 71 (1956) 840 99 149 213 261 425 1080 1400 2150 3090
2021-01-21 04:30 5.63 807 6100 (1990) 71 (1956) 840 99 149 213 261 425 1080 1400 2150 3090
2021-01-21 03:30 5.63 807 6100 (1990) 71 (1956) 840 99 149 213 261 425 1080 1400 2150 3090
2021-01-21 02:30 5.64 814 6100 (1990) 71 (1956) 840 99 149 213 261 425 1080 1400 2150 3090
2021-01-21 01:30 5.63 807 6100 (1990) 71 (1956) 840 99 149 213 261 425 1080 1400 2150 3090
2021-01-21 00:30 5.64 814 6100 (1990) 71 (1956) 840 99 149 213 261 425 1080 1400 2150 3090

A total of 81 rows are displayed for years 1936 through 2020.